sensor_id;sensor_type;location;lat;lon;timestamp;P1;durP1;ratioP1;P2;durP2;ratioP2
16973;SDS011;8603;46.944;7.412;2023-02-01T00:02:16;9.37;;;6.80;;
16973;SDS011;8603;46.944;7.412;2023-02-01T00:04:42;11.13;;;7.63;;
16973;SDS011;8603;46.944;7.412;2023-02-01T00:07:08;10.13;;;7.13;;
16973;SDS011;8603;46.944;7.412;2023-02-01T00:09:34;11.03;;;7.40;;
16973;SDS011;8603;46.944;7.412;2023-02-01T00:11:59;10.57;;;7.33;;
16973;SDS011;8603;46.944;7.412;2023-02-01T00:14:27;12.73;;;7.30;;
16973;SDS011;8603;46.944;7.412;2023-02-01T00:16:52;8.90;;;6.90;;
16973;SDS011;8603;46.944;7.412;2023-02-01T00:19:18;10.43;;;6.73;;
16973;SDS011;8603;46.944;7.412;2023-02-01T00:21:44;11.33;;;7.03;;
16973;SDS011;8603;46.944;7.412;2023-02-01T00:24:10;9.87;;;6.53;;
16973;SDS011;8603;46.944;7.412;2023-02-01T00:26:37;10.20;;;6.23;;
16973;SDS011;8603;46.944;7.412;2023-02-01T00:29:05;10.70;;;6.83;;
16973;SDS011;8603;46.944;7.412;2023-02-01T00:31:35;10.60;;;6.70;;
16973;SDS011;8603;46.944;7.412;2023-02-01T00:34:01;11.17;;;7.33;;
16973;SDS011;8603;46.944;7.412;2023-02-01T00:36:26;9.30;;;5.97;;
16973;SDS011;8603;46.944;7.412;2023-02-01T00:38:53;9.50;;;6.43;;
16973;SDS011;8603;46.944;7.412;2023-02-01T00:41:20;12.43;;;6.67;;
16973;SDS011;8603;46.944;7.412;2023-02-01T00:43:47;9.40;;;6.30;;
16973;SDS011;8603;46.944;7.412;2023-02-01T00:46:14;9.03;;;6.70;;
16973;SDS011;8603;46.944;7.412;2023-02-01T00:48:41;12.33;;;7.67;;
16973;SDS011;8603;46.944;7.412;2023-02-01T00:51:08;8.93;;;6.43;;
16973;SDS011;8603;46.944;7.412;2023-02-01T00:53:36;11.37;;;6.90;;
16973;SDS011;8603;46.944;7.412;2023-02-01T00:56:02;11.23;;;7.37;;
16973;SDS011;8603;46.944;7.412;2023-02-01T00:58:28;10.73;;;7.33;;
16973;SDS011;8603;46.944;7.412;2023-02-01T01:03:39;11.70;;;7.47;;
16973;SDS011;8603;46.944;7.412;2023-02-01T01:06:07;10.47;;;7.13;;
16973;SDS011;8603;46.944;7.412;2023-02-01T01:08:35;10.37;;;7.23;;
16973;SDS011;8603;46.944;7.412;2023-02-01T01:11:05;11.13;;;7.13;;
16973;SDS011;8603;46.944;7.412;2023-02-01T01:13:33;13.40;;;7.27;;
16973;SDS011;8603;46.944;7.412;2023-02-01T01:16:01;11.40;;;7.30;;
16973;SDS011;8603;46.944;7.412;2023-02-01T01:18:28;11.10;;;6.97;;
16973;SDS011;8603;46.944;7.412;2023-02-01T01:20:55;12.80;;;7.50;;
16973;SDS011;8603;46.944;7.412;2023-02-01T01:23:21;10.57;;;7.80;;
16973;SDS011;8603;46.944;7.412;2023-02-01T01:25:46;10.97;;;7.77;;
16973;SDS011;8603;46.944;7.412;2023-02-01T01:28:12;11.33;;;7.17;;
16973;SDS011;8603;46.944;7.412;2023-02-01T01:30:37;10.90;;;7.33;;
16973;SDS011;8603;46.944;7.412;2023-02-01T01:33:03;13.23;;;7.73;;
16973;SDS011;8603;46.944;7.412;2023-02-01T01:35:29;11.57;;;7.73;;
16973;SDS011;8603;46.944;7.412;2023-02-01T01:37:56;10.13;;;7.30;;
16973;SDS011;8603;46.944;7.412;2023-02-01T01:40:22;12.83;;;7.83;;
16973;SDS011;8603;46.944;7.412;2023-02-01T01:42:48;9.87;;;7.03;;
16973;SDS011;8603;46.944;7.412;2023-02-01T01:45:20;11.50;;;7.77;;
16973;SDS011;8603;46.944;7.412;2023-02-01T01:47:55;11.87;;;7.30;;
16973;SDS011;8603;46.944;7.412;2023-02-01T01:50:36;13.43;;;7.73;;
16973;SDS011;8603;46.944;7.412;2023-02-01T01:53:05;10.27;;;7.57;;
16973;SDS011;8603;46.944;7.412;2023-02-01T01:55:35;10.47;;;6.80;;
16973;SDS011;8603;46.944;7.412;2023-02-01T01:58:04;11.20;;;6.80;;
16973;SDS011;8603;46.944;7.412;2023-02-01T02:00:33;9.73;;;6.50;;
16973;SDS011;8603;46.944;7.412;2023-02-01T02:03:05;13.23;;;7.57;;
16973;SDS011;8603;46.944;7.412;2023-02-01T02:05:36;11.80;;;7.27;;
16973;SDS011;8603;46.944;7.412;2023-02-01T02:08:03;12.73;;;7.87;;
16973;SDS011;8603;46.944;7.412;2023-02-01T02:10:29;11.27;;;6.90;;
16973;SDS011;8603;46.944;7.412;2023-02-01T02:13:14;12.13;;;7.33;;
16973;SDS011;8603;46.944;7.412;2023-02-01T02:15:43;13.13;;;7.30;;
16973;SDS011;8603;46.944;7.412;2023-02-01T02:18:25;10.13;;;7.10;;
16973;SDS011;8603;46.944;7.412;2023-02-01T02:27:14;10.07;;;6.87;;
16973;SDS011;8603;46.944;7.412;2023-02-01T02:41:19;12.70;;;7.30;;
16973;SDS011;8603;46.944;7.412;2023-02-01T02:44:26;11.33;;;6.77;;
16973;SDS011;8603;46.944;7.412;2023-02-01T02:47:27;9.90;;;7.00;;
16973;SDS011;8603;46.944;7.412;2023-02-01T02:50:03;8.93;;;6.33;;
16973;SDS011;8603;46.944;7.412;2023-02-01T02:53:09;9.63;;;6.27;;
16973;SDS011;8603;46.944;7.412;2023-02-01T02:55:58;11.23;;;6.43;;
16973;SDS011;8603;46.944;7.412;2023-02-01T02:58:44;10.07;;;6.37;;
16973;SDS011;8603;46.944;7.412;2023-02-01T03:01:30;9.57;;;7.13;;
16973;SDS011;8603;46.944;7.412;2023-02-01T03:04:15;8.00;;;5.60;;
16973;SDS011;8603;46.944;7.412;2023-02-01T03:06:42;10.70;;;6.87;;
16973;SDS011;8603;46.944;7.412;2023-02-01T03:09:13;10.07;;;6.77;;
16973;SDS011;8603;46.944;7.412;2023-02-01T03:12:02;11.07;;;7.30;;
16973;SDS011;8603;46.944;7.412;2023-02-01T03:14:50;11.13;;;7.13;;
16973;SDS011;8603;46.944;7.412;2023-02-01T03:17:25;9.07;;;6.60;;
16973;SDS011;8603;46.944;7.412;2023-02-01T03:19:57;10.83;;;6.47;;
16973;SDS011;8603;46.944;7.412;2023-02-01T03:22:27;9.43;;;6.47;;
16973;SDS011;8603;46.944;7.412;2023-02-01T03:24:59;8.67;;;6.27;;
16973;SDS011;8603;46.944;7.412;2023-02-01T03:27:34;10.03;;;6.40;;
16973;SDS011;8603;46.944;7.412;2023-02-01T03:32:42;13.63;;;7.00;;
16973;SDS011;8603;46.944;7.412;2023-02-01T03:37:56;9.70;;;6.83;;
16973;SDS011;8603;46.944;7.412;2023-02-01T03:40:45;11.30;;;7.03;;
16973;SDS011;8603;46.944;7.412;2023-02-01T03:46:42;10.63;;;6.50;;
16973;SDS011;8603;46.944;7.412;2023-02-01T03:49:40;9.90;;;6.90;;
16973;SDS011;8603;46.944;7.412;2023-02-01T03:52:16;13.60;;;7.10;;
16973;SDS011;8603;46.944;7.412;2023-02-01T03:54:50;9.03;;;6.37;;
16973;SDS011;8603;46.944;7.412;2023-02-01T03:57:18;10.50;;;6.53;;
16973;SDS011;8603;46.944;7.412;2023-02-01T03:59:51;9.70;;;6.87;;
16973;SDS011;8603;46.944;7.412;2023-02-01T04:02:16;9.73;;;6.50;;
16973;SDS011;8603;46.944;7.412;2023-02-01T04:04:45;11.57;;;7.00;;
16973;SDS011;8603;46.944;7.412;2023-02-01T04:07:11;12.63;;;7.10;;
16973;SDS011;8603;46.944;7.412;2023-02-01T04:09:39;11.83;;;7.07;;
16973;SDS011;8603;46.944;7.412;2023-02-01T04:12:11;9.90;;;6.87;;
16973;SDS011;8603;46.944;7.412;2023-02-01T04:14:37;13.97;;;7.73;;
16973;SDS011;8603;46.944;7.412;2023-02-01T04:17:09;10.87;;;7.20;;
16973;SDS011;8603;46.944;7.412;2023-02-01T04:20:01;12.23;;;7.20;;
16973;SDS011;8603;46.944;7.412;2023-02-01T04:22:33;11.47;;;7.10;;
16973;SDS011;8603;46.944;7.412;2023-02-01T04:24:59;9.87;;;6.97;;
16973;SDS011;8603;46.944;7.412;2023-02-01T04:27:26;13.63;;;7.93;;
16973;SDS011;8603;46.944;7.412;2023-02-01T04:29:52;12.23;;;8.20;;
16973;SDS011;8603;46.944;7.412;2023-02-01T04:32:18;11.90;;;7.80;;
16973;SDS011;8603;46.944;7.412;2023-02-01T04:34:47;11.33;;;7.10;;
16973;SDS011;8603;46.944;7.412;2023-02-01T04:37:13;13.23;;;7.37;;
16973;SDS011;8603;46.944;7.412;2023-02-01T04:39:38;12.63;;;7.20;;
16973;SDS011;8603;46.944;7.412;2023-02-01T04:42:04;10.37;;;6.97;;
16973;SDS011;8603;46.944;7.412;2023-02-01T04:44:31;12.67;;;7.77;;
16973;SDS011;8603;46.944;7.412;2023-02-01T04:46:57;11.70;;;6.53;;
16973;SDS011;8603;46.944;7.412;2023-02-01T04:49:46;12.57;;;7.63;;
16973;SDS011;8603;46.944;7.412;2023-02-01T04:52:15;12.10;;;7.77;;
16973;SDS011;8603;46.944;7.412;2023-02-01T04:54:49;13.90;;;7.30;;
16973;SDS011;8603;46.944;7.412;2023-02-01T04:57:22;11.67;;;7.30;;
16973;SDS011;8603;46.944;7.412;2023-02-01T04:59:48;11.03;;;7.17;;
16973;SDS011;8603;46.944;7.412;2023-02-01T05:02:16;14.27;;;7.20;;
16973;SDS011;8603;46.944;7.412;2023-02-01T05:05:07;15.63;;;8.33;;
16973;SDS011;8603;46.944;7.412;2023-02-01T05:07:46;18.10;;;9.70;;
16973;SDS011;8603;46.944;7.412;2023-02-01T05:10:15;22.03;;;10.53;;
16973;SDS011;8603;46.944;7.412;2023-02-01T05:12:42;17.87;;;8.67;;
16973;SDS011;8603;46.944;7.412;2023-02-01T05:15:38;14.33;;;8.43;;
16973;SDS011;8603;46.944;7.412;2023-02-01T05:18:23;14.03;;;8.27;;
16973;SDS011;8603;46.944;7.412;2023-02-01T05:20:54;16.10;;;8.50;;
16973;SDS011;8603;46.944;7.412;2023-02-01T05:23:23;16.53;;;8.40;;
16973;SDS011;8603;46.944;7.412;2023-02-01T05:26:02;19.63;;;9.37;;
16973;SDS011;8603;46.944;7.412;2023-02-01T05:28:34;15.13;;;8.93;;
16973;SDS011;8603;46.944;7.412;2023-02-01T05:31:02;11.73;;;7.40;;
16973;SDS011;8603;46.944;7.412;2023-02-01T05:36:16;13.80;;;7.83;;
16973;SDS011;8603;46.944;7.412;2023-02-01T05:39:01;10.20;;;6.80;;
16973;SDS011;8603;46.944;7.412;2023-02-01T05:41:52;10.87;;;7.00;;
16973;SDS011;8603;46.944;7.412;2023-02-01T05:44:35;12.73;;;7.33;;
16973;SDS011;8603;46.944;7.412;2023-02-01T05:47:49;11.30;;;7.40;;
16973;SDS011;8603;46.944;7.412;2023-02-01T05:50:28;11.70;;;6.87;;
16973;SDS011;8603;46.944;7.412;2023-02-01T05:53:05;15.10;;;8.40;;
16973;SDS011;8603;46.944;7.412;2023-02-01T05:55:54;19.33;;;12.23;;
16973;SDS011;8603;46.944;7.412;2023-02-01T06:05:28;12.50;;;7.93;;
16973;SDS011;8603;46.944;7.412;2023-02-01T06:08:05;12.23;;;7.87;;
16973;SDS011;8603;46.944;7.412;2023-02-01T06:16:56;11.53;;;7.30;;
16973;SDS011;8603;46.944;7.412;2023-02-01T06:19:28;11.90;;;7.93;;
16973;SDS011;8603;46.944;7.412;2023-02-01T06:22:02;12.53;;;8.13;;
16973;SDS011;8603;46.944;7.412;2023-02-01T06:25:18;13.17;;;7.03;;
16973;SDS011;8603;46.944;7.412;2023-02-01T06:28:00;12.57;;;8.07;;
16973;SDS011;8603;46.944;7.412;2023-02-01T06:30:55;14.27;;;8.47;;
16973;SDS011;8603;46.944;7.412;2023-02-01T06:33:34;12.80;;;7.97;;
16973;SDS011;8603;46.944;7.412;2023-02-01T06:36:07;11.50;;;6.93;;
16973;SDS011;8603;46.944;7.412;2023-02-01T06:42:17;11.80;;;6.33;;
16973;SDS011;8603;46.944;7.412;2023-02-01T06:45:18;8.27;;;5.83;;
16973;SDS011;8603;46.944;7.412;2023-02-01T06:47:53;12.47;;;6.00;;
16973;SDS011;8603;46.944;7.412;2023-02-01T06:50:28;14.80;;;6.80;;
16973;SDS011;8603;46.944;7.412;2023-02-01T06:52:54;10.03;;;5.90;;
16973;SDS011;8603;46.944;7.412;2023-02-01T06:55:34;7.73;;;5.00;;
16973;SDS011;8603;46.944;7.412;2023-02-01T07:01:54;10.43;;;6.43;;
16973;SDS011;8603;46.944;7.412;2023-02-01T07:04:55;10.07;;;5.67;;
16973;SDS011;8603;46.944;7.412;2023-02-01T07:11:01;10.00;;;5.73;;
16973;SDS011;8603;46.944;7.412;2023-02-01T07:20:43;8.10;;;5.50;;
16973;SDS011;8603;46.944;7.412;2023-02-01T07:30:24;13.77;;;6.80;;
16973;SDS011;8603;46.944;7.412;2023-02-01T07:36:05;8.33;;;5.73;;
16973;SDS011;8603;46.944;7.412;2023-02-01T07:38:44;10.47;;;5.57;;
16973;SDS011;8603;46.944;7.412;2023-02-01T07:44:55;8.10;;;5.33;;
16973;SDS011;8603;46.944;7.412;2023-02-01T07:53:57;10.00;;;5.20;;
16973;SDS011;8603;46.944;7.412;2023-02-01T07:57:00;9.27;;;5.30;;
16973;SDS011;8603;46.944;7.412;2023-02-01T08:00:08;8.43;;;5.03;;
16973;SDS011;8603;46.944;7.412;2023-02-01T08:03:30;13.07;;;8.13;;
16973;SDS011;8603;46.944;7.412;2023-02-01T08:08:46;8.00;;;5.60;;
16973;SDS011;8603;46.944;7.412;2023-02-01T08:11:26;9.30;;;5.63;;
16973;SDS011;8603;46.944;7.412;2023-02-01T08:14:19;7.00;;;5.03;;
16973;SDS011;8603;46.944;7.412;2023-02-01T08:19:55;8.47;;;4.83;;
16973;SDS011;8603;46.944;7.412;2023-02-01T08:22:30;8.17;;;5.33;;
16973;SDS011;8603;46.944;7.412;2023-02-01T08:31:13;6.20;;;4.20;;
16973;SDS011;8603;46.944;7.412;2023-02-01T08:34:05;7.73;;;4.90;;
16973;SDS011;8603;46.944;7.412;2023-02-01T08:36:34;6.63;;;4.40;;
16973;SDS011;8603;46.944;7.412;2023-02-01T08:39:01;5.23;;;4.23;;
16973;SDS011;8603;46.944;7.412;2023-02-01T08:41:30;7.23;;;4.43;;
16973;SDS011;8603;46.944;7.412;2023-02-01T08:43:56;8.10;;;4.63;;
16973;SDS011;8603;46.944;7.412;2023-02-01T08:46:24;8.67;;;5.60;;
16973;SDS011;8603;46.944;7.412;2023-02-01T08:48:50;10.70;;;6.07;;
16973;SDS011;8603;46.944;7.412;2023-02-01T08:51:18;10.30;;;5.90;;
16973;SDS011;8603;46.944;7.412;2023-02-01T08:53:47;7.40;;;4.97;;
16973;SDS011;8603;46.944;7.412;2023-02-01T08:56:14;6.30;;;4.23;;
16973;SDS011;8603;46.944;7.412;2023-02-01T08:58:41;5.97;;;4.20;;
16973;SDS011;8603;46.944;7.412;2023-02-01T09:01:09;5.63;;;4.33;;
16973;SDS011;8603;46.944;7.412;2023-02-01T09:03:37;5.70;;;4.10;;
16973;SDS011;8603;46.944;7.412;2023-02-01T09:06:03;6.27;;;4.33;;
16973;SDS011;8603;46.944;7.412;2023-02-01T09:08:30;7.17;;;3.70;;
16973;SDS011;8603;46.944;7.412;2023-02-01T09:11:04;6.33;;;4.10;;
16973;SDS011;8603;46.944;7.412;2023-02-01T09:13:32;5.80;;;4.50;;
16973;SDS011;8603;46.944;7.412;2023-02-01T09:15:58;8.03;;;4.63;;
16973;SDS011;8603;46.944;7.412;2023-02-01T09:18:24;6.00;;;4.40;;
16973;SDS011;8603;46.944;7.412;2023-02-01T09:20:51;5.40;;;3.87;;
16973;SDS011;8603;46.944;7.412;2023-02-01T09:23:16;8.13;;;6.23;;
16973;SDS011;8603;46.944;7.412;2023-02-01T09:25:42;6.87;;;5.63;;
16973;SDS011;8603;46.944;7.412;2023-02-01T09:28:11;6.87;;;5.13;;
16973;SDS011;8603;46.944;7.412;2023-02-01T09:30:37;5.33;;;4.20;;
16973;SDS011;8603;46.944;7.412;2023-02-01T09:33:06;7.73;;;4.47;;
16973;SDS011;8603;46.944;7.412;2023-02-01T09:35:31;7.20;;;4.40;;
16973;SDS011;8603;46.944;7.412;2023-02-01T09:37:57;5.53;;;4.10;;
16973;SDS011;8603;46.944;7.412;2023-02-01T09:40:29;7.53;;;4.30;;
16973;SDS011;8603;46.944;7.412;2023-02-01T09:48:51;9.13;;;6.40;;
16973;SDS011;8603;46.944;7.412;2023-02-01T09:51:20;8.90;;;5.97;;
16973;SDS011;8603;46.944;7.412;2023-02-01T09:54:02;6.43;;;4.80;;
16973;SDS011;8603;46.944;7.412;2023-02-01T09:56:53;7.87;;;5.30;;
16973;SDS011;8603;46.944;7.412;2023-02-01T10:01:56;9.13;;;4.53;;
16973;SDS011;8603;46.944;7.412;2023-02-01T10:04:24;5.67;;;4.27;;
16973;SDS011;8603;46.944;7.412;2023-02-01T10:20:16;8.17;;;6.17;;
16973;SDS011;8603;46.944;7.412;2023-02-01T10:22:52;6.90;;;4.80;;
16973;SDS011;8603;46.944;7.412;2023-02-01T10:25:47;6.30;;;4.00;;
16973;SDS011;8603;46.944;7.412;2023-02-01T10:28:20;6.17;;;3.80;;
16973;SDS011;8603;46.944;7.412;2023-02-01T10:30:48;6.37;;;3.77;;
16973;SDS011;8603;46.944;7.412;2023-02-01T10:33:16;5.63;;;4.03;;
16973;SDS011;8603;46.944;7.412;2023-02-01T10:35:54;10.87;;;5.50;;
16973;SDS011;8603;46.944;7.412;2023-02-01T10:38:28;7.37;;;4.83;;
16973;SDS011;8603;46.944;7.412;2023-02-01T10:40:55;6.50;;;4.43;;
16973;SDS011;8603;46.944;7.412;2023-02-01T10:43:24;16.13;;;8.90;;
16973;SDS011;8603;46.944;7.412;2023-02-01T10:45:50;30.23;;;15.70;;
16973;SDS011;8603;46.944;7.412;2023-02-01T10:48:16;13.93;;;8.23;;
16973;SDS011;8603;46.944;7.412;2023-02-01T10:50:49;7.30;;;4.20;;
16973;SDS011;8603;46.944;7.412;2023-02-01T10:53:42;6.10;;;4.47;;
16973;SDS011;8603;46.944;7.412;2023-02-01T10:56:22;5.37;;;3.33;;
16973;SDS011;8603;46.944;7.412;2023-02-01T10:58:50;3.83;;;2.97;;
16973;SDS011;8603;46.944;7.412;2023-02-01T11:01:20;4.77;;;3.20;;
16973;SDS011;8603;46.944;7.412;2023-02-01T11:03:55;7.53;;;3.70;;
16973;SDS011;8603;46.944;7.412;2023-02-01T11:06:26;10.53;;;3.67;;
16973;SDS011;8603;46.944;7.412;2023-02-01T11:08:53;4.20;;;3.37;;
16973;SDS011;8603;46.944;7.412;2023-02-01T11:11:22;4.27;;;3.30;;
16973;SDS011;8603;46.944;7.412;2023-02-01T11:14:26;3.90;;;3.10;;
16973;SDS011;8603;46.944;7.412;2023-02-01T11:16:41;5.93;;;3.30;;
16973;SDS011;8603;46.944;7.412;2023-02-01T11:19:15;4.37;;;3.43;;
16973;SDS011;8603;46.944;7.412;2023-02-01T11:21:42;5.17;;;3.40;;
16973;SDS011;8603;46.944;7.412;2023-02-01T11:24:16;4.70;;;2.90;;
16973;SDS011;8603;46.944;7.412;2023-02-01T11:26:45;6.77;;;3.33;;
16973;SDS011;8603;46.944;7.412;2023-02-01T11:29:12;5.63;;;3.40;;
16973;SDS011;8603;46.944;7.412;2023-02-01T11:31:42;4.43;;;3.10;;
16973;SDS011;8603;46.944;7.412;2023-02-01T11:34:44;4.17;;;3.13;;
16973;SDS011;8603;46.944;7.412;2023-02-01T11:37:13;4.70;;;3.03;;
16973;SDS011;8603;46.944;7.412;2023-02-01T11:39:53;4.83;;;2.73;;
16973;SDS011;8603;46.944;7.412;2023-02-01T11:42:21;2.60;;;2.10;;
16973;SDS011;8603;46.944;7.412;2023-02-01T11:44:46;3.43;;;2.10;;
16973;SDS011;8603;46.944;7.412;2023-02-01T11:50:05;3.27;;;2.10;;
16973;SDS011;8603;46.944;7.412;2023-02-01T12:07:52;4.60;;;2.70;;
16973;SDS011;8603;46.944;7.412;2023-02-01T12:10:54;5.63;;;2.47;;
16973;SDS011;8603;46.944;7.412;2023-02-01T12:16:24;3.53;;;2.40;;
16973;SDS011;8603;46.944;7.412;2023-02-01T12:27:20;3.90;;;2.43;;
16973;SDS011;8603;46.944;7.412;2023-02-01T12:30:13;3.30;;;2.60;;
16973;SDS011;8603;46.944;7.412;2023-02-01T12:42:22;4.57;;;1.90;;
16973;SDS011;8603;46.944;7.412;2023-02-01T12:47:17;2.37;;;1.97;;
16973;SDS011;8603;46.944;7.412;2023-02-01T12:50:00;2.43;;;1.87;;
16973;SDS011;8603;46.944;7.412;2023-02-01T12:57:42;2.03;;;1.40;;
16973;SDS011;8603;46.944;7.412;2023-02-01T13:02:49;3.10;;;1.60;;
16973;SDS011;8603;46.944;7.412;2023-02-01T13:05:22;1.40;;;1.30;;
16973;SDS011;8603;46.944;7.412;2023-02-01T13:10:28;1.50;;;1.40;;
16973;SDS011;8603;46.944;7.412;2023-02-01T13:15:57;3.63;;;1.53;;
16973;SDS011;8603;46.944;7.412;2023-02-01T13:18:36;2.10;;;1.90;;
16973;SDS011;8603;46.944;7.412;2023-02-01T13:21:13;4.67;;;2.50;;
16973;SDS011;8603;46.944;7.412;2023-02-01T13:23:42;2.53;;;2.27;;
16973;SDS011;8603;46.944;7.412;2023-02-01T13:26:11;4.23;;;2.57;;
16973;SDS011;8603;46.944;7.412;2023-02-01T13:42:27;3.90;;;2.40;;
16973;SDS011;8603;46.944;7.412;2023-02-01T13:44:59;2.73;;;2.10;;
16973;SDS011;8603;46.944;7.412;2023-02-01T13:47:30;2.10;;;1.90;;
16973;SDS011;8603;46.944;7.412;2023-02-01T13:49:59;2.10;;;1.90;;
16973;SDS011;8603;46.944;7.412;2023-02-01T13:52:51;2.97;;;1.80;;
16973;SDS011;8603;46.944;7.412;2023-02-01T13:57:48;3.77;;;1.90;;
16973;SDS011;8603;46.944;7.412;2023-02-01T14:00:34;2.63;;;2.00;;
16973;SDS011;8603;46.944;7.412;2023-02-01T14:03:06;2.10;;;1.90;;
16973;SDS011;8603;46.944;7.412;2023-02-01T14:08:10;2.80;;;1.60;;
16973;SDS011;8603;46.944;7.412;2023-02-01T14:21:12;3.43;;;2.00;;
16973;SDS011;8603;46.944;7.412;2023-02-01T14:26:43;3.90;;;2.00;;
16973;SDS011;8603;46.944;7.412;2023-02-01T14:34:29;3.23;;;1.90;;
16973;SDS011;8603;46.944;7.412;2023-02-01T14:37:08;3.20;;;1.90;;
16973;SDS011;8603;46.944;7.412;2023-02-01T14:45:48;1.70;;;1.60;;
16973;SDS011;8603;46.944;7.412;2023-02-01T14:55:42;2.70;;;1.90;;
16973;SDS011;8603;46.944;7.412;2023-02-01T14:58:19;2.20;;;1.70;;
16973;SDS011;8603;46.944;7.412;2023-02-01T15:01:00;3.00;;;1.77;;
16973;SDS011;8603;46.944;7.412;2023-02-01T15:05:58;1.90;;;1.70;;
16973;SDS011;8603;46.944;7.412;2023-02-01T15:08:30;1.93;;;1.73;;
16973;SDS011;8603;46.944;7.412;2023-02-01T15:10:59;1.60;;;1.50;;
16973;SDS011;8603;46.944;7.412;2023-02-01T15:13:27;4.70;;;1.50;;
16973;SDS011;8603;46.944;7.412;2023-02-01T15:16:00;2.70;;;1.70;;
16973;SDS011;8603;46.944;7.412;2023-02-01T15:18:27;3.20;;;1.50;;
16973;SDS011;8603;46.944;7.412;2023-02-01T15:20:57;2.93;;;1.80;;
16973;SDS011;8603;46.944;7.412;2023-02-01T15:23:24;1.80;;;1.47;;
16973;SDS011;8603;46.944;7.412;2023-02-01T15:25:51;2.27;;;1.83;;
16973;SDS011;8603;46.944;7.412;2023-02-01T15:28:17;1.83;;;1.37;;
16973;SDS011;8603;46.944;7.412;2023-02-01T15:30:53;2.37;;;1.57;;
16973;SDS011;8603;46.944;7.412;2023-02-01T15:33:24;1.90;;;1.70;;
16973;SDS011;8603;46.944;7.412;2023-02-01T15:35:52;2.03;;;1.43;;
16973;SDS011;8603;46.944;7.412;2023-02-01T15:43:38;2.10;;;1.63;;
16973;SDS011;8603;46.944;7.412;2023-02-01T15:46:39;2.03;;;1.40;;
16973;SDS011;8603;46.944;7.412;2023-02-01T15:51:51;2.10;;;1.60;;
16973;SDS011;8603;46.944;7.412;2023-02-01T15:54:26;5.00;;;1.90;;
16973;SDS011;8603;46.944;7.412;2023-02-01T15:56:58;1.83;;;1.47;;
16973;SDS011;8603;46.944;7.412;2023-02-01T15:59:47;2.00;;;1.53;;
16973;SDS011;8603;46.944;7.412;2023-02-01T16:08:04;1.40;;;1.30;;
16973;SDS011;8603;46.944;7.412;2023-02-01T16:10:40;2.57;;;1.50;;
16973;SDS011;8603;46.944;7.412;2023-02-01T16:13:11;1.90;;;1.37;;
16973;SDS011;8603;46.944;7.412;2023-02-01T16:15:37;1.27;;;1.17;;
16973;SDS011;8603;46.944;7.412;2023-02-01T16:18:04;2.40;;;1.40;;
16973;SDS011;8603;46.944;7.412;2023-02-01T16:20:36;2.73;;;1.60;;
16973;SDS011;8603;46.944;7.412;2023-02-01T16:23:06;1.90;;;1.60;;
16973;SDS011;8603;46.944;7.412;2023-02-01T16:25:36;2.00;;;1.63;;
16973;SDS011;8603;46.944;7.412;2023-02-01T16:28:02;2.80;;;1.73;;
16973;SDS011;8603;46.944;7.412;2023-02-01T16:30:30;2.57;;;1.47;;
16973;SDS011;8603;46.944;7.412;2023-02-01T16:32:56;1.53;;;1.43;;
16973;SDS011;8603;46.944;7.412;2023-02-01T16:35:27;2.27;;;1.80;;
16973;SDS011;8603;46.944;7.412;2023-02-01T16:38:00;3.83;;;1.70;;
16973;SDS011;8603;46.944;7.412;2023-02-01T16:40:27;2.60;;;1.57;;
16973;SDS011;8603;46.944;7.412;2023-02-01T16:42:53;2.53;;;1.73;;
16973;SDS011;8603;46.944;7.412;2023-02-01T16:45:21;1.50;;;1.27;;
16973;SDS011;8603;46.944;7.412;2023-02-01T16:47:48;2.07;;;1.50;;
16973;SDS011;8603;46.944;7.412;2023-02-01T16:50:20;2.87;;;1.97;;
16973;SDS011;8603;46.944;7.412;2023-02-01T16:52:48;2.53;;;1.50;;
16973;SDS011;8603;46.944;7.412;2023-02-01T16:55:16;1.80;;;1.50;;
16973;SDS011;8603;46.944;7.412;2023-02-01T16:57:44;3.00;;;1.70;;
16973;SDS011;8603;46.944;7.412;2023-02-01T17:00:10;5.40;;;2.33;;
16973;SDS011;8603;46.944;7.412;2023-02-01T17:02:56;4.27;;;1.80;;
16973;SDS011;8603;46.944;7.412;2023-02-01T17:05:21;4.23;;;1.93;;
16973;SDS011;8603;46.944;7.412;2023-02-01T17:07:47;3.40;;;2.10;;
16973;SDS011;8603;46.944;7.412;2023-02-01T17:10:24;4.60;;;1.90;;
16973;SDS011;8603;46.944;7.412;2023-02-01T17:12:52;2.83;;;1.70;;
16973;SDS011;8603;46.944;7.412;2023-02-01T17:15:17;4.03;;;1.93;;
16973;SDS011;8603;46.944;7.412;2023-02-01T17:17:43;2.60;;;1.70;;
16973;SDS011;8603;46.944;7.412;2023-02-01T17:20:17;11.60;;;5.50;;
16973;SDS011;8603;46.944;7.412;2023-02-01T17:22:54;7.47;;;3.03;;
16973;SDS011;8603;46.944;7.412;2023-02-01T17:25:20;8.40;;;3.20;;
16973;SDS011;8603;46.944;7.412;2023-02-01T17:27:50;4.53;;;2.10;;
16973;SDS011;8603;46.944;7.412;2023-02-01T17:30:15;2.73;;;2.00;;
16973;SDS011;8603;46.944;7.412;2023-02-01T17:32:44;6.10;;;2.47;;
16973;SDS011;8603;46.944;7.412;2023-02-01T17:35:15;3.03;;;2.30;;
16973;SDS011;8603;46.944;7.412;2023-02-01T17:37:45;4.37;;;2.00;;
16973;SDS011;8603;46.944;7.412;2023-02-01T17:40:13;8.03;;;2.87;;
16973;SDS011;8603;46.944;7.412;2023-02-01T17:43:02;3.13;;;2.60;;
16973;SDS011;8603;46.944;7.412;2023-02-01T17:48:36;5.43;;;2.23;;
16973;SDS011;8603;46.944;7.412;2023-02-01T17:51:15;3.93;;;2.13;;
16973;SDS011;8603;46.944;7.412;2023-02-01T17:53:45;3.67;;;2.73;;
16973;SDS011;8603;46.944;7.412;2023-02-01T17:56:15;4.38;;;2.55;;
16973;SDS011;8603;46.944;7.412;2023-02-01T17:58:45;4.57;;;2.43;;
16973;SDS011;8603;46.944;7.412;2023-02-01T18:01:18;3.23;;;2.20;;
16973;SDS011;8603;46.944;7.412;2023-02-01T18:03:45;3.67;;;2.60;;
16973;SDS011;8603;46.944;7.412;2023-02-01T18:06:13;8.67;;;5.13;;
16973;SDS011;8603;46.944;7.412;2023-02-01T18:08:40;4.87;;;2.97;;
16973;SDS011;8603;46.944;7.412;2023-02-01T18:11:16;4.80;;;2.47;;
16973;SDS011;8603;46.944;7.412;2023-02-01T18:13:49;4.33;;;2.60;;
16973;SDS011;8603;46.944;7.412;2023-02-01T18:18:46;3.40;;;2.00;;
16973;SDS011;8603;46.944;7.412;2023-02-01T18:21:12;4.55;;;3.35;;
16973;SDS011;8603;46.944;7.412;2023-02-01T18:23:40;25.40;;;10.57;;
16973;SDS011;8603;46.944;7.412;2023-02-01T18:26:07;6.33;;;3.40;;
16973;SDS011;8603;46.944;7.412;2023-02-01T18:28:36;4.60;;;2.53;;
16973;SDS011;8603;46.944;7.412;2023-02-01T18:31:03;4.37;;;2.40;;
16973;SDS011;8603;46.944;7.412;2023-02-01T18:33:30;3.10;;;2.37;;
16973;SDS011;8603;46.944;7.412;2023-02-01T18:35:58;5.37;;;2.70;;
16973;SDS011;8603;46.944;7.412;2023-02-01T18:38:26;4.03;;;2.60;;
16973;SDS011;8603;46.944;7.412;2023-02-01T18:40:53;5.53;;;2.97;;
16973;SDS011;8603;46.944;7.412;2023-02-01T18:43:23;4.93;;;2.40;;
16973;SDS011;8603;46.944;7.412;2023-02-01T18:46:02;8.10;;;2.40;;
16973;SDS011;8603;46.944;7.412;2023-02-01T18:48:28;3.90;;;2.57;;
16973;SDS011;8603;46.944;7.412;2023-02-01T18:50:55;4.67;;;2.63;;
16973;SDS011;8603;46.944;7.412;2023-02-01T18:53:21;3.17;;;2.47;;
16973;SDS011;8603;46.944;7.412;2023-02-01T18:55:54;2.53;;;2.30;;
16973;SDS011;8603;46.944;7.412;2023-02-01T18:58:21;3.70;;;2.40;;
16973;SDS011;8603;46.944;7.412;2023-02-01T19:00:50;3.50;;;2.63;;
16973;SDS011;8603;46.944;7.412;2023-02-01T19:03:17;5.60;;;2.60;;
16973;SDS011;8603;46.944;7.412;2023-02-01T19:05:50;5.73;;;3.20;;
16973;SDS011;8603;46.944;7.412;2023-02-01T19:08:19;3.57;;;2.30;;
16973;SDS011;8603;46.944;7.412;2023-02-01T19:10:45;5.90;;;3.43;;
16973;SDS011;8603;46.944;7.412;2023-02-01T19:13:18;4.67;;;2.63;;
16973;SDS011;8603;46.944;7.412;2023-02-01T19:15:48;5.20;;;2.57;;
16973;SDS011;8603;46.944;7.412;2023-02-01T19:18:15;4.87;;;2.57;;
16973;SDS011;8603;46.944;7.412;2023-02-01T19:20:44;3.57;;;2.73;;
16973;SDS011;8603;46.944;7.412;2023-02-01T19:23:12;5.83;;;2.53;;
16973;SDS011;8603;46.944;7.412;2023-02-01T19:25:41;5.00;;;2.73;;
16973;SDS011;8603;46.944;7.412;2023-02-01T19:28:08;3.57;;;2.43;;
16973;SDS011;8603;46.944;7.412;2023-02-01T19:30:34;4.00;;;2.97;;
16973;SDS011;8603;46.944;7.412;2023-02-01T19:33:00;5.60;;;2.70;;
16973;SDS011;8603;46.944;7.412;2023-02-01T19:35:27;5.93;;;2.90;;